createdAt,value
2023-08-08T00:01:04.242Z,100.00
2023-08-08T00:03:32.757Z,100.00
2023-08-08T00:06:01.466Z,100.00
2023-08-08T00:08:29.947Z,100.00
2023-08-08T00:10:59.856Z,100.00
2023-08-08T00:13:28.812Z,100.00
2023-08-08T00:15:57.646Z,100.00
2023-08-08T00:18:28.564Z,100.00
2023-08-08T00:20:57.043Z,100.00
2023-08-08T00:23:25.712Z,100.00
2023-08-08T00:25:54.411Z,100.00
2023-08-08T00:28:24.930Z,100.00
2023-08-08T00:30:53.592Z,100.00
2023-08-08T00:33:24.334Z,100.00
2023-08-08T00:35:53.014Z,100.00
2023-08-08T00:38:21.562Z,100.00
2023-08-08T00:40:50.041Z,100.00
2023-08-08T00:43:18.911Z,100.00
2023-08-08T00:45:48.733Z,100.00
2023-08-08T00:48:18.766Z,100.00
2023-08-08T00:50:49.868Z,100.00
2023-08-08T00:53:19.862Z,100.00
2023-08-08T00:55:48.899Z,100.00
2023-08-08T00:58:18.517Z,100.00
2023-08-08T01:00:48.743Z,100.00
2023-08-08T01:03:18.027Z,100.00
2023-08-08T01:05:53.353Z,100.00
2023-08-08T01:08:32.688Z,100.00
2023-08-08T01:11:01.773Z,100.00
2023-08-08T01:13:34.038Z,100.00
2023-08-08T01:16:06.074Z,100.00
2023-08-08T01:18:35.581Z,100.00
2023-08-08T01:21:06.810Z,100.00
2023-08-08T01:23:44.648Z,100.00
2023-08-08T01:26:15.199Z,100.00
2023-08-08T01:28:45.250Z,100.00
2023-08-08T01:31:13.813Z,100.00
2023-08-08T01:33:43.565Z,100.00
2023-08-08T01:36:20.469Z,100.00
2023-08-08T01:38:51.012Z,100.00
2023-08-08T01:41:22.342Z,100.00
2023-08-08T01:43:51.734Z,100.00
2023-08-08T01:46:20.611Z,100.00
2023-08-08T01:48:49.378Z,100.00
2023-08-08T01:51:17.857Z,100.00
2023-08-08T01:53:46.748Z,100.00
2023-08-08T01:56:16.125Z,100.00
2023-08-08T01:58:46.365Z,100.00
2023-08-08T02:01:14.891Z,100.00
2023-08-08T02:03:44.008Z,100.00
2023-08-08T02:06:13.420Z,100.00
2023-08-08T02:08:42.011Z,100.00
2023-08-08T02:11:10.748Z,100.00
2023-08-08T02:13:39.978Z,100.00
2023-08-08T02:16:09.921Z,100.00
2023-08-08T02:18:41.820Z,100.00
2023-08-08T02:21:10.460Z,100.00
2023-08-08T02:23:38.956Z,100.00
2023-08-08T02:26:08.141Z,100.00
2023-08-08T02:28:37.136Z,100.00
2023-08-08T02:31:06.069Z,100.00
2023-08-08T02:33:35.853Z,100.00
2023-08-08T02:36:04.743Z,100.00
2023-08-08T02:38:33.965Z,100.00
2023-08-08T02:41:02.430Z,100.00
2023-08-08T02:43:31.312Z,100.00
2023-08-08T02:45:59.880Z,100.00
2023-08-08T02:48:29.241Z,100.00
2023-08-08T02:50:59.190Z,100.00
2023-08-08T02:53:29.407Z,100.00
2023-08-08T02:56:00.674Z,100.00
2023-08-08T02:58:32.885Z,100.00
2023-08-08T03:01:03.171Z,100.00
2023-08-08T03:03:31.830Z,100.00
2023-08-08T03:06:03.895Z,100.00
2023-08-08T03:08:34.782Z,100.00
2023-08-08T03:11:03.989Z,100.00
2023-08-08T03:13:32.582Z,100.00
2023-08-08T03:16:01.550Z,100.00
2023-08-08T03:18:30.506Z,100.00
2023-08-08T03:21:01.070Z,100.00
2023-08-08T03:23:33.377Z,100.00
2023-08-08T03:26:02.577Z,100.00
2023-08-08T03:28:31.307Z,100.00
2023-08-08T03:31:00.094Z,100.00
2023-08-08T03:33:31.008Z,100.00
2023-08-08T03:36:02.115Z,100.00
2023-08-08T03:38:30.914Z,100.00
2023-08-08T03:40:59.601Z,100.00
2023-08-08T03:43:29.010Z,100.00
2023-08-08T03:45:57.523Z,100.00
2023-08-08T03:48:26.120Z,100.00
2023-08-08T03:50:54.743Z,100.00
2023-08-08T03:53:24.584Z,100.00
2023-08-08T03:55:53.122Z,100.00
2023-08-08T03:58:22.607Z,100.00
2023-08-08T04:00:51.103Z,100.00
2023-08-08T04:03:20.686Z,100.00
2023-08-08T04:05:49.426Z,100.00
2023-08-08T04:08:20.908Z,100.00
2023-08-08T04:10:51.211Z,100.00
2023-08-08T04:13:19.738Z,100.00
2023-08-08T04:15:48.392Z,100.00
2023-08-08T04:18:16.959Z,100.00
2023-08-08T04:20:45.437Z,100.00
2023-08-08T04:23:14.139Z,100.00
2023-08-08T04:25:42.566Z,100.00
2023-08-08T04:28:12.408Z,100.00
2023-08-08T04:30:40.933Z,100.00
2023-08-08T04:33:09.547Z,100.00
2023-08-08T04:35:38.407Z,100.00
2023-08-08T04:38:07.100Z,100.00
2023-08-08T04:40:36.907Z,100.00
2023-08-08T04:43:06.740Z,100.00
2023-08-08T04:45:36.778Z,100.00
2023-08-08T04:48:05.826Z,100.00
2023-08-08T04:50:34.537Z,100.00
2023-08-08T04:53:03.114Z,100.00
2023-08-08T04:55:32.114Z,100.00
2023-08-08T04:58:00.560Z,100.00
2023-08-08T05:00:30.016Z,100.00
2023-08-08T05:03:00.238Z,100.00
2023-08-08T05:05:29.040Z,100.00
2023-08-08T05:07:57.514Z,100.00
2023-08-08T05:10:26.131Z,100.00
2023-08-08T05:12:54.549Z,100.00
2023-08-08T05:15:23.077Z,100.00
2023-08-08T05:17:52.714Z,100.00
2023-08-08T05:20:25.118Z,100.00
2023-08-08T05:22:53.658Z,100.00
2023-08-08T05:25:22.094Z,100.00
2023-08-08T05:27:51.048Z,100.00
2023-08-08T05:30:19.805Z,100.00
2023-08-08T05:32:48.383Z,100.00
2023-08-08T05:35:17.074Z,100.00
2023-08-08T05:37:47.201Z,100.00
2023-08-08T05:40:15.789Z,100.00
2023-08-08T05:42:44.330Z,100.00
2023-08-08T05:45:13.324Z,100.00
2023-08-08T05:47:42.106Z,100.00
2023-08-08T05:50:11.374Z,100.00
2023-08-08T05:52:39.981Z,100.00
2023-08-08T05:55:10.715Z,100.00
2023-08-08T05:57:39.112Z,100.00
2023-08-08T06:00:11.938Z,100.00
2023-08-08T06:02:44.316Z,100.00
2023-08-08T06:05:13.314Z,97.98
2023-08-08T06:07:41.833Z,97.74
2023-08-08T06:10:13.166Z,95.21
2023-08-08T06:12:41.733Z,93.18
2023-08-08T06:15:11.174Z,91.61
2023-08-08T06:17:39.808Z,90.69
2023-08-08T06:20:10.534Z,89.66
2023-08-08T06:22:40.086Z,91.76
2023-08-08T06:25:09.273Z,92.91
2023-08-08T06:27:39.143Z,92.13
2023-08-08T06:30:09.362Z,90.29
2023-08-08T06:32:37.830Z,90.19
2023-08-08T06:35:07.273Z,88.71
2023-08-08T06:37:35.621Z,89.41
2023-08-08T06:40:04.328Z,88.83
2023-08-08T06:42:32.743Z,89.76
2023-08-08T06:45:05.301Z,92.97
2023-08-08T06:47:33.866Z,94.22
2023-08-08T06:50:02.308Z,96.35
2023-08-08T06:52:30.689Z,95.37
2023-08-08T06:54:59.115Z,94.87
2023-08-08T06:57:27.497Z,92.49
2023-08-08T06:59:55.899Z,88.14
2023-08-08T07:02:25.915Z,84.66
2023-08-08T07:04:54.369Z,81.81
2023-08-08T07:07:22.831Z,83.51
2023-08-08T07:09:51.793Z,79.02
2023-08-08T07:12:20.455Z,77.49
2023-08-08T07:14:48.814Z,76.47
2023-08-08T07:17:17.221Z,79.88
2023-08-08T07:19:47.746Z,79.91
2023-08-08T07:22:16.239Z,80.86
2023-08-08T07:24:44.827Z,76.11
2023-08-08T07:27:13.255Z,73.89
2023-08-08T07:29:42.001Z,73.57
2023-08-08T07:32:10.820Z,73.44
2023-08-08T07:34:39.413Z,77.00
2023-08-08T07:37:09.207Z,77.68
2023-08-08T07:39:37.585Z,79.79
2023-08-08T07:42:06.381Z,82.87
2023-08-08T07:44:35.740Z,84.03
2023-08-08T07:47:04.466Z,82.87
2023-08-08T07:49:33.170Z,79.68
2023-08-08T07:52:01.859Z,76.02
2023-08-08T07:54:31.922Z,71.68
2023-08-08T07:57:01.049Z,69.88
2023-08-08T07:59:29.483Z,73.83
2023-08-08T08:01:57.905Z,72.48
2023-08-08T08:04:26.396Z,72.63
2023-08-08T08:06:54.927Z,74.09
2023-08-08T08:09:24.264Z,76.92
2023-08-08T08:11:54.223Z,76.52
2023-08-08T08:14:23.793Z,77.04
2023-08-08T08:16:52.628Z,75.09
2023-08-08T08:19:22.589Z,70.37
2023-08-08T08:21:51.008Z,68.00
2023-08-08T08:24:19.514Z,63.84
2023-08-08T08:26:48.052Z,64.02
2023-08-08T08:29:17.866Z,68.48
2023-08-08T08:31:46.419Z,72.38
2023-08-08T08:34:14.815Z,71.25
2023-08-08T08:36:43.203Z,68.53
2023-08-08T08:39:11.727Z,66.20
2023-08-08T08:41:40.273Z,65.93
2023-08-08T08:44:09.941Z,65.90
2023-08-08T08:46:40.838Z,63.47
2023-08-08T08:49:10.572Z,64.35
2023-08-08T08:51:39.856Z,63.91
2023-08-08T08:54:08.451Z,68.86
2023-08-08T08:56:37.103Z,67.58
2023-08-08T08:59:05.817Z,69.54
2023-08-08T09:01:34.327Z,67.67
2023-08-08T09:04:05.174Z,67.08
2023-08-08T09:06:34.421Z,65.88
2023-08-08T09:09:15.226Z,65.40
2023-08-08T09:11:47.977Z,65.23
2023-08-08T09:14:20.306Z,64.85
2023-08-08T09:16:49.401Z,68.34
2023-08-08T09:19:19.783Z,69.39
2023-08-08T09:21:48.299Z,68.88
2023-08-08T09:24:17.302Z,69.39
2023-08-08T09:26:46.608Z,69.61
2023-08-08T09:29:16.556Z,68.49
2023-08-08T09:31:45.205Z,68.69
2023-08-08T09:34:13.610Z,69.92
2023-08-08T09:36:43.662Z,71.49
2023-08-08T09:39:12.111Z,72.68
2023-08-08T09:41:41.238Z,72.37
2023-08-08T09:44:10.485Z,72.39
2023-08-08T09:46:40.315Z,70.56
2023-08-08T09:49:08.880Z,70.49
2023-08-08T09:51:37.309Z,70.31
2023-08-08T09:54:07.934Z,68.92
2023-08-08T09:56:37.048Z,69.84
2023-08-08T09:59:07.838Z,70.31
2023-08-08T10:01:36.703Z,66.95
2023-08-08T10:04:05.754Z,66.47
2023-08-08T10:06:34.509Z,64.44
2023-08-08T10:09:05.668Z,65.80
2023-08-08T10:11:36.235Z,66.17
2023-08-08T10:14:05.765Z,64.66
2023-08-08T10:16:35.298Z,64.80
2023-08-08T10:19:06.141Z,63.09
2023-08-08T10:21:36.416Z,63.95
2023-08-08T10:24:06.307Z,65.93
2023-08-08T10:26:36.677Z,64.57
2023-08-08T10:29:05.297Z,63.42
2023-08-08T10:31:37.740Z,65.60
2023-08-08T10:34:08.058Z,62.91
2023-08-08T10:36:50.243Z,62.29
2023-08-08T10:39:19.728Z,60.72
2023-08-08T10:41:51.135Z,61.01
2023-08-08T10:44:27.980Z,62.02
2023-08-08T10:46:58.120Z,59.55
2023-08-08T10:49:28.763Z,58.26
2023-08-08T10:52:05.253Z,61.27
2023-08-08T10:54:34.857Z,61.48
2023-08-08T10:57:05.109Z,62.53
2023-08-08T10:59:39.593Z,65.18
2023-08-08T11:02:09.756Z,66.30
2023-08-08T11:04:38.530Z,65.58
2023-08-08T11:07:07.566Z,65.24
2023-08-08T11:09:35.969Z,66.46
2023-08-08T11:12:08.399Z,65.56
2023-08-08T11:14:37.868Z,66.92
2023-08-08T11:17:07.444Z,68.18
2023-08-08T11:19:41.840Z,68.33
2023-08-08T11:22:15.780Z,67.71
2023-08-08T11:24:44.160Z,68.40
2023-08-08T11:30:02.435Z,69.35
2023-08-08T11:32:30.898Z,68.94
2023-08-08T11:34:59.574Z,68.31
2023-08-08T11:37:28.694Z,69.67
2023-08-08T11:39:57.280Z,69.84
2023-08-08T11:42:27.624Z,69.12
2023-08-08T11:44:56.552Z,69.56
2023-08-08T11:47:26.959Z,70.43
2023-08-08T11:49:55.412Z,71.53
2023-08-08T11:52:24.822Z,69.96
2023-08-08T11:54:53.921Z,68.12
2023-08-08T11:57:22.389Z,68.36
2023-08-08T11:59:52.479Z,67.11
2023-08-08T12:02:21.637Z,66.88
2023-08-08T12:04:50.152Z,67.14
2023-08-08T12:07:19.318Z,66.94
2023-08-08T12:09:49.393Z,67.85
2023-08-08T12:12:20.358Z,70.24
2023-08-08T12:14:52.197Z,69.39
2023-08-08T12:17:33.308Z,70.16
2023-08-08T12:20:02.119Z,69.82
2023-08-08T12:22:31.844Z,70.78
2023-08-08T12:25:01.911Z,69.73
2023-08-08T12:27:30.396Z,69.05
2023-08-08T12:29:58.965Z,67.89
2023-08-08T12:32:29.826Z,67.45
2023-08-08T12:34:59.811Z,67.20
2023-08-08T12:37:28.632Z,66.57
2023-08-08T12:39:57.714Z,67.13
2023-08-08T12:42:26.319Z,66.23
2023-08-08T12:44:55.548Z,65.75
2023-08-08T12:47:24.134Z,66.60
2023-08-08T12:49:52.584Z,67.18
2023-08-08T12:52:24.183Z,68.08
2023-08-08T12:54:53.477Z,67.44
2023-08-08T12:57:22.223Z,67.46
2023-08-08T12:59:50.657Z,68.01
2023-08-08T13:02:19.191Z,68.34
2023-08-08T13:04:47.813Z,67.41
2023-08-08T13:07:16.347Z,66.56
2023-08-08T13:09:46.045Z,67.96
2023-08-08T13:12:14.778Z,68.60
2023-08-08T13:14:43.436Z,70.84
2023-08-08T13:17:11.864Z,70.71
2023-08-08T13:19:40.398Z,72.32
2023-08-08T13:22:08.896Z,70.19
2023-08-08T13:24:38.554Z,69.72
2023-08-08T13:27:08.331Z,69.06
2023-08-08T13:29:36.736Z,68.68
2023-08-08T13:32:05.574Z,69.18
2023-08-08T13:34:34.057Z,68.87
2023-08-08T13:37:02.735Z,71.04
2023-08-08T13:39:31.264Z,71.89
2023-08-08T13:42:00.429Z,72.45
2023-08-08T13:44:30.542Z,71.09
2023-08-08T13:46:59.947Z,68.49
2023-08-08T13:49:28.762Z,67.70
2023-08-08T13:51:57.461Z,67.79
2023-08-08T13:54:26.147Z,67.10
2023-08-08T13:56:54.902Z,68.54
2023-08-08T13:59:27.743Z,68.51
2023-08-08T14:01:57.661Z,70.82
2023-08-08T14:04:26.246Z,71.50
2023-08-08T14:06:54.654Z,73.80
2023-08-08T14:09:23.833Z,73.55
2023-08-08T14:11:52.602Z,74.06
2023-08-08T14:14:21.070Z,72.65
2023-08-08T14:16:49.476Z,72.06
2023-08-08T14:19:20.130Z,70.42
2023-08-08T14:21:48.797Z,71.20
2023-08-08T14:24:17.237Z,73.05
2023-08-08T14:26:46.674Z,75.45
2023-08-08T14:29:15.288Z,77.93
2023-08-08T14:31:54.728Z,79.62
2023-08-08T14:34:33.806Z,79.36
2023-08-08T14:37:03.479Z,75.59
2023-08-08T14:39:31.961Z,73.50
2023-08-08T14:42:00.668Z,73.36
2023-08-08T14:44:29.466Z,75.07
2023-08-08T14:46:57.959Z,74.33
2023-08-08T14:49:27.199Z,74.21
2023-08-08T14:51:57.100Z,74.06
2023-08-08T14:54:25.856Z,74.19
2023-08-08T14:56:54.262Z,74.86
2023-08-08T14:59:22.672Z,74.63
2023-08-08T15:01:51.590Z,75.69
2023-08-08T15:04:20.444Z,75.71
2023-08-08T15:06:50.851Z,76.45
2023-08-08T15:09:20.797Z,77.26
2023-08-08T15:11:49.252Z,78.28
2023-08-08T15:14:17.692Z,77.49
2023-08-08T15:16:51.125Z,78.03
2023-08-08T15:19:20.437Z,78.27
2023-08-08T15:21:49.299Z,78.39
2023-08-08T15:24:18.506Z,76.49
2023-08-08T15:26:48.276Z,75.96
2023-08-08T15:29:16.736Z,77.07
2023-08-08T15:31:45.287Z,77.67
2023-08-08T15:34:13.784Z,78.60
2023-08-08T15:36:42.604Z,78.39
2023-08-08T15:39:12.480Z,78.49
2023-08-08T15:41:41.245Z,77.63
2023-08-08T15:44:11.819Z,77.11
2023-08-08T15:46:40.804Z,76.79
2023-08-08T15:49:09.470Z,76.75
2023-08-08T15:51:37.881Z,75.63
2023-08-08T15:54:06.933Z,75.15
2023-08-08T15:56:37.867Z,73.72
2023-08-08T15:59:07.051Z,74.10
2023-08-08T16:01:37.245Z,74.63
2023-08-08T16:04:06.639Z,74.25
2023-08-08T16:06:35.602Z,74.75
2023-08-08T16:09:09.054Z,76.39
2023-08-08T16:11:37.433Z,77.40
2023-08-08T16:14:06.142Z,78.25
2023-08-08T16:16:35.922Z,76.82
2023-08-08T16:19:04.453Z,77.18
2023-08-08T16:21:32.956Z,75.96
2023-08-08T16:24:01.360Z,75.56
2023-08-08T16:26:29.808Z,76.21
2023-08-08T16:29:01.102Z,75.03
2023-08-08T16:31:29.696Z,74.81
2023-08-08T16:33:59.588Z,75.68
2023-08-08T16:36:30.478Z,77.37
2023-08-08T16:39:08.942Z,77.97
2023-08-08T16:41:46.317Z,78.37
2023-08-08T16:44:14.778Z,80.04
2023-08-08T16:46:43.356Z,81.08
2023-08-08T16:49:13.129Z,82.49
2023-08-08T16:51:41.768Z,83.08
2023-08-08T16:54:10.644Z,84.29
2023-08-08T16:56:39.075Z,84.05
2023-08-08T16:59:07.582Z,84.40
2023-08-08T17:01:38.005Z,85.13
2023-08-08T17:04:06.502Z,85.67
2023-08-08T17:06:36.402Z,85.73
2023-08-08T17:09:06.592Z,86.25
2023-08-08T17:11:35.017Z,86.92
2023-08-08T17:14:03.667Z,87.46
2023-08-08T17:16:32.195Z,87.44
2023-08-08T17:19:01.097Z,88.02
2023-08-08T17:21:29.632Z,87.98
2023-08-08T17:23:59.490Z,88.86
2023-08-08T17:26:27.987Z,89.76
2023-08-08T17:28:56.368Z,89.59
2023-08-08T17:31:26.132Z,89.93
2023-08-08T17:33:55.453Z,88.71
2023-08-08T17:36:25.239Z,88.86
2023-08-08T17:38:53.613Z,88.35
2023-08-08T17:41:23.446Z,88.77
2023-08-08T17:43:51.788Z,86.53
2023-08-08T17:46:20.199Z,84.95
2023-08-08T17:48:49.116Z,85.66
2023-08-08T17:51:17.645Z,85.29
2023-08-08T17:53:46.494Z,85.17
2023-08-08T17:56:16.317Z,85.55
2023-08-08T17:58:46.187Z,86.04
2023-08-08T18:01:14.712Z,86.38
2023-08-08T18:03:43.135Z,86.51
2023-08-08T18:06:11.908Z,87.24
2023-08-08T18:08:40.869Z,88.32
2023-08-08T18:11:11.410Z,88.27
2023-08-08T18:13:40.556Z,89.03
2023-08-08T18:16:17.955Z,90.36
2023-08-08T18:18:47.992Z,89.78
2023-08-08T18:21:16.423Z,90.73
2023-08-08T18:23:44.979Z,91.36
2023-08-08T18:26:18.809Z,91.67
2023-08-08T18:28:50.793Z,92.48
2023-08-08T18:31:21.679Z,95.45
2023-08-08T18:33:50.528Z,98.65
2023-08-08T18:36:18.963Z,98.26
2023-08-08T18:38:51.020Z,99.75
2023-08-08T18:41:19.729Z,98.55
2023-08-08T18:43:48.505Z,100.00
2023-08-08T18:46:20.410Z,100.00
2023-08-08T18:49:18.156Z,100.00
2023-08-08T18:51:46.879Z,100.00
2023-08-08T18:54:16.681Z,100.00
2023-08-08T18:56:47.599Z,100.00
2023-08-08T18:59:15.992Z,100.00
2023-08-08T19:01:45.889Z,100.00
2023-08-08T19:04:14.443Z,100.00
2023-08-08T19:06:42.888Z,100.00
2023-08-08T19:09:12.000Z,100.00
2023-08-08T19:11:40.886Z,100.00
2023-08-08T19:14:09.405Z,100.00
2023-08-08T19:16:39.613Z,100.00
2023-08-08T19:19:09.928Z,100.00
2023-08-08T19:21:38.700Z,100.00
2023-08-08T19:24:07.876Z,100.00
2023-08-08T19:26:36.344Z,100.00
2023-08-08T19:29:05.175Z,100.00
2023-08-08T19:31:33.781Z,100.00
2023-08-08T19:34:07.147Z,100.00
2023-08-08T19:36:37.736Z,100.00
2023-08-08T19:39:06.571Z,100.00
2023-08-08T19:41:35.001Z,100.00
2023-08-08T19:44:03.581Z,100.00
2023-08-08T19:46:32.144Z,100.00
2023-08-08T19:49:00.641Z,100.00
2023-08-08T19:51:29.742Z,100.00
2023-08-08T19:54:00.985Z,100.00
2023-08-08T19:56:29.568Z,100.00
2023-08-08T19:58:58.305Z,100.00
2023-08-08T20:01:28.260Z,100.00
2023-08-08T20:03:56.708Z,100.00
2023-08-08T20:06:25.604Z,100.00
2023-08-08T20:08:55.864Z,100.00
2023-08-08T20:11:25.828Z,100.00
2023-08-08T20:13:54.313Z,100.00
2023-08-08T20:16:25.120Z,100.00
2023-08-08T20:18:53.797Z,100.00
2023-08-08T20:21:23.240Z,100.00
2023-08-08T20:23:51.710Z,100.00
2023-08-08T20:26:20.138Z,100.00
2023-08-08T20:28:50.714Z,100.00
2023-08-08T20:31:19.483Z,100.00
2023-08-08T20:33:48.093Z,100.00
2023-08-08T20:36:17.321Z,100.00
2023-08-08T20:38:45.789Z,100.00
2023-08-08T20:41:14.836Z,100.00
2023-08-08T20:43:43.861Z,100.00
2023-08-08T20:46:16.231Z,100.00
2023-08-08T20:48:46.334Z,100.00
2023-08-08T20:51:14.914Z,100.00
2023-08-08T20:53:43.665Z,100.00
2023-08-08T20:56:12.134Z,100.00
2023-08-08T20:58:40.574Z,100.00
2023-08-08T21:01:09.362Z,100.00
2023-08-08T21:03:39.456Z,100.00
2023-08-08T21:06:08.829Z,100.00
2023-08-08T21:08:37.272Z,100.00
2023-08-08T21:11:05.794Z,100.00
2023-08-08T21:13:34.217Z,100.00
2023-08-08T21:16:02.669Z,100.00
2023-08-08T21:18:31.580Z,100.00
2023-08-08T21:21:02.452Z,100.00
2023-08-08T21:23:32.269Z,100.00
2023-08-08T21:26:00.676Z,100.00
2023-08-08T21:28:30.554Z,100.00
2023-08-08T21:30:59.356Z,100.00
2023-08-08T21:33:27.773Z,100.00
2023-08-08T21:35:56.336Z,100.00
2023-08-08T21:38:26.227Z,100.00
2023-08-08T21:40:55.090Z,100.00
2023-08-08T21:43:23.526Z,100.00
2023-08-08T21:45:52.007Z,100.00
2023-08-08T21:48:20.472Z,100.00
2023-08-08T21:50:48.899Z,100.00
2023-08-08T21:53:17.320Z,100.00
2023-08-08T21:55:47.390Z,100.00
2023-08-08T21:58:18.924Z,100.00
2023-08-08T22:00:47.769Z,100.00
2023-08-08T22:03:16.650Z,100.00
2023-08-08T22:05:45.936Z,100.00
2023-08-08T22:08:14.690Z,100.00
2023-08-08T22:10:43.712Z,100.00
2023-08-08T22:13:13.708Z,100.00
2023-08-08T22:15:42.440Z,100.00
2023-08-08T22:18:13.808Z,100.00
2023-08-08T22:20:42.992Z,100.00
2023-08-08T22:23:19.416Z,100.00
2023-08-08T22:25:49.933Z,100.00
2023-08-08T22:28:20.326Z,100.00
2023-08-08T22:30:51.610Z,100.00
2023-08-08T22:33:21.890Z,100.00
2023-08-08T22:35:50.308Z,100.00
2023-08-08T22:38:18.691Z,100.00
2023-08-08T22:40:47.972Z,100.00
2023-08-08T22:43:16.757Z,100.00
2023-08-08T22:45:46.610Z,100.00
2023-08-08T22:48:15.015Z,100.00
2023-08-08T22:50:45.096Z,100.00
2023-08-08T22:53:13.961Z,100.00
2023-08-08T22:55:42.674Z,100.00
2023-08-08T22:58:11.206Z,100.00
2023-08-08T23:00:39.985Z,100.00
2023-08-08T23:03:10.246Z,100.00
2023-08-08T23:05:39.153Z,100.00
2023-08-08T23:08:08.211Z,100.00
2023-08-08T23:10:36.779Z,100.00
2023-08-08T23:13:05.504Z,100.00
2023-08-08T23:15:34.246Z,100.00
2023-08-08T23:18:03.596Z,100.00
2023-08-08T23:20:33.414Z,100.00
2023-08-08T23:23:01.818Z,100.00
2023-08-08T23:25:30.256Z,100.00
2023-08-08T23:27:58.941Z,100.00
2023-08-08T23:30:27.408Z,100.00
2023-08-08T23:32:56.761Z,100.00
2023-08-08T23:35:25.308Z,100.00
2023-08-08T23:37:55.159Z,100.00
2023-08-08T23:40:23.761Z,100.00
2023-08-08T23:42:52.491Z,100.00
2023-08-08T23:45:21.016Z,100.00
2023-08-08T23:47:49.526Z,100.00
2023-08-08T23:50:18.695Z,100.00
2023-08-08T23:52:47.134Z,100.00
2023-08-08T23:55:16.933Z,100.00
2023-08-08T23:57:45.403Z,100.00
